sensor_id;sensor_type;location;lat;lon;timestamp;P1;durP1;ratioP1;P2;durP2;ratioP2
43994;SDS011;51687;52.160;5.298;2022-08-19T00:02:01;2.92;;;1.75;;
43994;SDS011;51687;52.160;5.298;2022-08-19T00:04:30;1.90;;;1.80;;
43994;SDS011;51687;52.160;5.298;2022-08-19T00:06:59;9.27;;;2.67;;
43994;SDS011;51687;52.160;5.298;2022-08-19T00:09:26;2.30;;;2.10;;
43994;SDS011;51687;52.160;5.298;2022-08-19T00:11:54;2.50;;;2.30;;
43994;SDS011;51687;52.160;5.298;2022-08-19T00:14:22;2.00;;;1.90;;
43994;SDS011;51687;52.160;5.298;2022-08-19T00:16:50;2.47;;;1.83;;
43994;SDS011;51687;52.160;5.298;2022-08-19T00:19:20;2.15;;;2.05;;
43994;SDS011;51687;52.160;5.298;2022-08-19T00:21:50;2.40;;;2.20;;
43994;SDS011;51687;52.160;5.298;2022-08-19T00:24:17;1.85;;;1.75;;
43994;SDS011;51687;52.160;5.298;2022-08-19T00:26:45;3.40;;;1.75;;
43994;SDS011;51687;52.160;5.298;2022-08-19T00:29:12;4.50;;;1.70;;
43994;SDS011;51687;52.160;5.298;2022-08-19T00:31:42;2.30;;;2.10;;
43994;SDS011;51687;52.160;5.298;2022-08-19T00:34:10;2.25;;;1.77;;
43994;SDS011;51687;52.160;5.298;2022-08-19T00:36:38;5.13;;;2.20;;
43994;SDS011;51687;52.160;5.298;2022-08-19T00:39:06;2.10;;;1.90;;
43994;SDS011;51687;52.160;5.298;2022-08-19T00:41:34;1.98;;;1.77;;
43994;SDS011;51687;52.160;5.298;2022-08-19T00:44:08;1.90;;;1.80;;
43994;SDS011;51687;52.160;5.298;2022-08-19T00:46:37;2.15;;;1.77;;
43994;SDS011;51687;52.160;5.298;2022-08-19T00:49:19;2.28;;;1.98;;
43994;SDS011;51687;52.160;5.298;2022-08-19T00:51:52;3.20;;;2.10;;
43994;SDS011;51687;52.160;5.298;2022-08-19T00:54:22;2.72;;;1.83;;
43994;SDS011;51687;52.160;5.298;2022-08-19T00:56:56;4.03;;;1.95;;
43994;SDS011;51687;52.160;5.298;2022-08-19T00:59:23;1.95;;;1.85;;
43994;SDS011;51687;52.160;5.298;2022-08-19T01:02:11;2.50;;;1.85;;
43994;SDS011;51687;52.160;5.298;2022-08-19T01:04:39;2.13;;;1.40;;
43994;SDS011;51687;52.160;5.298;2022-08-19T01:07:06;2.05;;;1.92;;
43994;SDS011;51687;52.160;5.298;2022-08-19T01:09:40;4.13;;;1.70;;
43994;SDS011;51687;52.160;5.298;2022-08-19T01:12:06;1.70;;;1.52;;
43994;SDS011;51687;52.160;5.298;2022-08-19T01:14:35;1.85;;;1.30;;
43994;SDS011;51687;52.160;5.298;2022-08-19T01:17:05;1.63;;;1.52;;
43994;SDS011;51687;52.160;5.298;2022-08-19T01:19:35;2.20;;;1.40;;
43994;SDS011;51687;52.160;5.298;2022-08-19T01:25:01;3.67;;;1.50;;
43994;SDS011;51687;52.160;5.298;2022-08-19T01:27:39;4.10;;;1.77;;
43994;SDS011;51687;52.160;5.298;2022-08-19T01:30:11;1.67;;;1.45;;
43994;SDS011;51687;52.160;5.298;2022-08-19T01:32:39;2.28;;;1.35;;
43994;SDS011;51687;52.160;5.298;2022-08-19T01:35:07;1.20;;;1.20;;
43994;SDS011;51687;52.160;5.298;2022-08-19T01:37:44;2.65;;;1.45;;
43994;SDS011;51687;52.160;5.298;2022-08-19T01:40:18;2.25;;;1.38;;
43994;SDS011;51687;52.160;5.298;2022-08-19T01:42:47;2.42;;;1.60;;
43994;SDS011;51687;52.160;5.298;2022-08-19T01:45:15;1.50;;;1.40;;
43994;SDS011;51687;52.160;5.298;2022-08-19T01:47:43;3.17;;;1.70;;
43994;SDS011;51687;52.160;5.298;2022-08-19T01:50:26;2.45;;;1.45;;
43994;SDS011;51687;52.160;5.298;2022-08-19T01:52:53;3.00;;;2.00;;
43994;SDS011;51687;52.160;5.298;2022-08-19T01:55:31;3.10;;;1.80;;
43994;SDS011;51687;52.160;5.298;2022-08-19T01:58:00;2.42;;;1.83;;
43994;SDS011;51687;52.160;5.298;2022-08-19T02:00:29;2.35;;;2.15;;
43994;SDS011;51687;52.160;5.298;2022-08-19T02:02:58;2.67;;;1.83;;
43994;SDS011;51687;52.160;5.298;2022-08-19T02:05:25;6.47;;;2.25;;
43994;SDS011;51687;52.160;5.298;2022-08-19T02:07:51;2.60;;;2.05;;
43994;SDS011;51687;52.160;5.298;2022-08-19T02:10:19;3.42;;;1.77;;
43994;SDS011;51687;52.160;5.298;2022-08-19T02:12:48;2.30;;;1.90;;
43994;SDS011;51687;52.160;5.298;2022-08-19T02:15:16;2.72;;;2.10;;
43994;SDS011;51687;52.160;5.298;2022-08-19T02:17:45;5.88;;;1.90;;
43994;SDS011;51687;52.160;5.298;2022-08-19T02:20:12;1.85;;;1.70;;
43994;SDS011;51687;52.160;5.298;2022-08-19T02:22:40;1.83;;;1.73;;
43994;SDS011;51687;52.160;5.298;2022-08-19T02:25:13;2.38;;;2.10;;
43994;SDS011;51687;52.160;5.298;2022-08-19T02:27:40;3.78;;;2.33;;
43994;SDS011;51687;52.160;5.298;2022-08-19T02:30:09;2.13;;;1.85;;
43994;SDS011;51687;52.160;5.298;2022-08-19T02:32:39;2.00;;;1.80;;
43994;SDS011;51687;52.160;5.298;2022-08-19T02:35:10;1.98;;;1.70;;
43994;SDS011;51687;52.160;5.298;2022-08-19T02:37:38;2.92;;;2.10;;
43994;SDS011;51687;52.160;5.298;2022-08-19T02:40:25;3.08;;;2.00;;
43994;SDS011;51687;52.160;5.298;2022-08-19T02:42:53;4.95;;;2.20;;
43994;SDS011;51687;52.160;5.298;2022-08-19T02:45:20;2.75;;;1.95;;
43994;SDS011;51687;52.160;5.298;2022-08-19T02:47:47;3.40;;;2.30;;
43994;SDS011;51687;52.160;5.298;2022-08-19T02:50:14;3.55;;;2.67;;
43994;SDS011;51687;52.160;5.298;2022-08-19T02:52:40;4.03;;;2.10;;
43994;SDS011;51687;52.160;5.298;2022-08-19T02:55:07;3.33;;;2.53;;
43994;SDS011;51687;52.160;5.298;2022-08-19T02:57:35;2.60;;;2.38;;
43994;SDS011;51687;52.160;5.298;2022-08-19T03:00:04;3.72;;;2.40;;
43994;SDS011;51687;52.160;5.298;2022-08-19T03:02:32;2.65;;;2.45;;
43994;SDS011;51687;52.160;5.298;2022-08-19T03:04:59;4.03;;;2.50;;
43994;SDS011;51687;52.160;5.298;2022-08-19T03:07:26;2.55;;;2.35;;
43994;SDS011;51687;52.160;5.298;2022-08-19T03:09:52;3.33;;;3.03;;
43994;SDS011;51687;52.160;5.298;2022-08-19T03:12:19;2.45;;;2.25;;
43994;SDS011;51687;52.160;5.298;2022-08-19T03:14:46;2.72;;;2.53;;
43994;SDS011;51687;52.160;5.298;2022-08-19T03:17:17;2.50;;;2.30;;
43994;SDS011;51687;52.160;5.298;2022-08-19T03:19:43;3.00;;;2.72;;
43994;SDS011;51687;52.160;5.298;2022-08-19T03:22:10;3.15;;;2.63;;
43994;SDS011;51687;52.160;5.298;2022-08-19T03:24:38;3.80;;;3.00;;
43994;SDS011;51687;52.160;5.298;2022-08-19T03:27:04;3.70;;;3.00;;
43994;SDS011;51687;52.160;5.298;2022-08-19T03:29:31;3.13;;;2.90;;
43994;SDS011;51687;52.160;5.298;2022-08-19T03:32:08;3.20;;;2.92;;
43994;SDS011;51687;52.160;5.298;2022-08-19T03:34:55;3.10;;;2.90;;
43994;SDS011;51687;52.160;5.298;2022-08-19T03:37:21;3.15;;;2.85;;
43994;SDS011;51687;52.160;5.298;2022-08-19T03:39:51;4.25;;;3.38;;
43994;SDS011;51687;52.160;5.298;2022-08-19T03:42:17;3.03;;;2.83;;
43994;SDS011;51687;52.160;5.298;2022-08-19T03:45:04;3.40;;;3.13;;
43994;SDS011;51687;52.160;5.298;2022-08-19T03:47:31;3.80;;;3.00;;
43994;SDS011;51687;52.160;5.298;2022-08-19T03:49:58;4.63;;;3.15;;
43994;SDS011;51687;52.160;5.298;2022-08-19T03:52:25;4.00;;;2.88;;
43994;SDS011;51687;52.160;5.298;2022-08-19T03:54:52;3.70;;;3.45;;
43994;SDS011;51687;52.160;5.298;2022-08-19T03:57:18;3.33;;;2.90;;
43994;SDS011;51687;52.160;5.298;2022-08-19T03:59:45;2.70;;;2.50;;
43994;SDS011;51687;52.160;5.298;2022-08-19T04:02:12;3.22;;;3.03;;
43994;SDS011;51687;52.160;5.298;2022-08-19T04:04:40;3.00;;;2.75;;
43994;SDS011;51687;52.160;5.298;2022-08-19T04:07:10;6.72;;;3.38;;
43994;SDS011;51687;52.160;5.298;2022-08-19T04:09:38;3.83;;;3.53;;
43994;SDS011;51687;52.160;5.298;2022-08-19T04:12:05;3.35;;;3.00;;
43994;SDS011;51687;52.160;5.298;2022-08-19T04:14:32;3.72;;;3.42;;
43994;SDS011;51687;52.160;5.298;2022-08-19T04:17:01;4.68;;;2.95;;
43994;SDS011;51687;52.160;5.298;2022-08-19T04:19:33;4.28;;;3.88;;
43994;SDS011;51687;52.160;5.298;2022-08-19T04:22:01;4.03;;;3.70;;
43994;SDS011;51687;52.160;5.298;2022-08-19T04:24:28;3.33;;;3.13;;
43994;SDS011;51687;52.160;5.298;2022-08-19T04:26:55;4.47;;;3.38;;
43994;SDS011;51687;52.160;5.298;2022-08-19T04:29:24;4.03;;;3.67;;
43994;SDS011;51687;52.160;5.298;2022-08-19T04:31:53;10.25;;;5.22;;
43994;SDS011;51687;52.160;5.298;2022-08-19T04:34:23;5.13;;;4.70;;
43994;SDS011;51687;52.160;5.298;2022-08-19T04:36:52;5.22;;;4.00;;
43994;SDS011;51687;52.160;5.298;2022-08-19T04:41:47;4.85;;;4.43;;
43994;SDS011;51687;52.160;5.298;2022-08-19T04:44:34;5.88;;;4.65;;
43994;SDS011;51687;52.160;5.298;2022-08-19T04:47:11;4.88;;;4.57;;
43994;SDS011;51687;52.160;5.298;2022-08-19T04:49:39;4.95;;;4.57;;
43994;SDS011;51687;52.160;5.298;2022-08-19T04:52:06;6.90;;;4.65;;
43994;SDS011;51687;52.160;5.298;2022-08-19T04:54:34;4.95;;;4.47;;
43994;SDS011;51687;52.160;5.298;2022-08-19T04:57:03;5.93;;;4.57;;
43994;SDS011;51687;52.160;5.298;2022-08-19T04:59:33;11.63;;;4.90;;
43994;SDS011;51687;52.160;5.298;2022-08-19T05:02:00;8.88;;;4.63;;
43994;SDS011;51687;52.160;5.298;2022-08-19T05:04:27;4.13;;;3.83;;
43994;SDS011;51687;52.160;5.298;2022-08-19T05:06:58;4.60;;;4.30;;
43994;SDS011;51687;52.160;5.298;2022-08-19T05:09:27;4.82;;;4.43;;
43994;SDS011;51687;52.160;5.298;2022-08-19T05:12:14;4.60;;;4.22;;
43994;SDS011;51687;52.160;5.298;2022-08-19T05:14:42;4.60;;;4.22;;
43994;SDS011;51687;52.160;5.298;2022-08-19T05:17:11;5.65;;;5.15;;
43994;SDS011;51687;52.160;5.298;2022-08-19T05:19:58;5.40;;;5.00;;
43994;SDS011;51687;52.160;5.298;2022-08-19T05:22:43;5.75;;;5.13;;
43994;SDS011;51687;52.160;5.298;2022-08-19T05:25:14;6.50;;;5.95;;
43994;SDS011;51687;52.160;5.298;2022-08-19T05:27:44;6.65;;;6.05;;
43994;SDS011;51687;52.160;5.298;2022-08-19T05:30:11;6.05;;;5.57;;
43994;SDS011;51687;52.160;5.298;2022-08-19T05:32:39;8.52;;;5.43;;
43994;SDS011;51687;52.160;5.298;2022-08-19T05:35:06;6.50;;;5.93;;
43994;SDS011;51687;52.160;5.298;2022-08-19T05:37:33;8.93;;;6.73;;
43994;SDS011;51687;52.160;5.298;2022-08-19T05:40:00;7.13;;;6.63;;
43994;SDS011;51687;52.160;5.298;2022-08-19T05:42:27;7.43;;;6.93;;
43994;SDS011;51687;52.160;5.298;2022-08-19T05:44:54;7.25;;;6.72;;
43994;SDS011;51687;52.160;5.298;2022-08-19T05:49:51;9.00;;;8.18;;
43994;SDS011;51687;52.160;5.298;2022-08-19T05:52:18;11.32;;;10.43;;
43994;SDS011;51687;52.160;5.298;2022-08-19T05:54:51;14.70;;;13.60;;
43994;SDS011;51687;52.160;5.298;2022-08-19T05:57:21;13.05;;;12.15;;
43994;SDS011;51687;52.160;5.298;2022-08-19T05:59:48;14.80;;;13.73;;
43994;SDS011;51687;52.160;5.298;2022-08-19T06:02:24;18.23;;;16.73;;
43994;SDS011;51687;52.160;5.298;2022-08-19T06:07:18;23.50;;;21.30;;
43994;SDS011;51687;52.160;5.298;2022-08-19T06:09:45;26.00;;;23.60;;
43994;SDS011;51687;52.160;5.298;2022-08-19T06:12:25;27.80;;;24.92;;
43994;SDS011;51687;52.160;5.298;2022-08-19T06:14:56;26.80;;;24.52;;
43994;SDS011;51687;52.160;5.298;2022-08-19T06:17:27;28.05;;;25.17;;
43994;SDS011;51687;52.160;5.298;2022-08-19T06:19:57;28.35;;;25.85;;
43994;SDS011;51687;52.160;5.298;2022-08-19T06:22:24;30.42;;;27.58;;
43994;SDS011;51687;52.160;5.298;2022-08-19T06:24:54;32.37;;;29.30;;
43994;SDS011;51687;52.160;5.298;2022-08-19T06:27:21;33.60;;;30.08;;
43994;SDS011;51687;52.160;5.298;2022-08-19T06:29:49;30.27;;;27.05;;
43994;SDS011;51687;52.160;5.298;2022-08-19T06:32:16;33.33;;;29.90;;
43994;SDS011;51687;52.160;5.298;2022-08-19T06:34:44;36.22;;;29.80;;
43994;SDS011;51687;52.160;5.298;2022-08-19T06:37:11;35.30;;;31.90;;
43994;SDS011;51687;52.160;5.298;2022-08-19T06:39:39;42.30;;;35.47;;
43994;SDS011;51687;52.160;5.298;2022-08-19T06:42:07;38.88;;;32.50;;
43994;SDS011;51687;52.160;5.298;2022-08-19T06:44:38;42.75;;;33.53;;
43994;SDS011;51687;52.160;5.298;2022-08-19T06:47:09;37.17;;;31.88;;
43994;SDS011;51687;52.160;5.298;2022-08-19T06:49:40;44.88;;;34.53;;
43994;SDS011;51687;52.160;5.298;2022-08-19T06:52:10;45.72;;;37.15;;
43994;SDS011;51687;52.160;5.298;2022-08-19T06:54:39;45.33;;;37.17;;
43994;SDS011;51687;52.160;5.298;2022-08-19T06:57:24;56.00;;;39.30;;
43994;SDS011;51687;52.160;5.298;2022-08-19T06:59:53;50.80;;;37.05;;
43994;SDS011;51687;52.160;5.298;2022-08-19T07:04:52;56.08;;;39.08;;
43994;SDS011;51687;52.160;5.298;2022-08-19T07:07:20;66.78;;;42.05;;
43994;SDS011;51687;52.160;5.298;2022-08-19T07:12:26;69.72;;;43.83;;
43994;SDS011;51687;52.160;5.298;2022-08-19T07:14:56;68.70;;;43.63;;
43994;SDS011;51687;52.160;5.298;2022-08-19T07:17:24;71.68;;;45.28;;
43994;SDS011;51687;52.160;5.298;2022-08-19T07:19:52;72.15;;;44.85;;
43994;SDS011;51687;52.160;5.298;2022-08-19T07:22:20;68.40;;;45.53;;
43994;SDS011;51687;52.160;5.298;2022-08-19T07:24:49;75.28;;;45.22;;
43994;SDS011;51687;52.160;5.298;2022-08-19T07:27:20;77.47;;;45.03;;
43994;SDS011;51687;52.160;5.298;2022-08-19T07:29:50;72.65;;;44.80;;
43994;SDS011;51687;52.160;5.298;2022-08-19T07:32:21;66.50;;;44.58;;
43994;SDS011;51687;52.160;5.298;2022-08-19T07:34:49;69.32;;;44.22;;
43994;SDS011;51687;52.160;5.298;2022-08-19T07:37:16;68.68;;;45.33;;
43994;SDS011;51687;52.160;5.298;2022-08-19T07:39:43;71.35;;;44.58;;
43994;SDS011;51687;52.160;5.298;2022-08-19T07:42:10;66.80;;;43.08;;
43994;SDS011;51687;52.160;5.298;2022-08-19T07:44:38;69.90;;;42.40;;
43994;SDS011;51687;52.160;5.298;2022-08-19T07:47:10;66.30;;;41.58;;
43994;SDS011;51687;52.160;5.298;2022-08-19T07:49:57;64.00;;;41.92;;
43994;SDS011;51687;52.160;5.298;2022-08-19T07:52:24;63.28;;;42.90;;
43994;SDS011;51687;52.160;5.298;2022-08-19T07:54:51;68.00;;;41.35;;
43994;SDS011;51687;52.160;5.298;2022-08-19T07:57:19;60.55;;;41.10;;
43994;SDS011;51687;52.160;5.298;2022-08-19T07:59:45;59.03;;;40.70;;
43994;SDS011;51687;52.160;5.298;2022-08-19T08:02:12;57.40;;;39.72;;
43994;SDS011;51687;52.160;5.298;2022-08-19T08:04:39;55.85;;;39.35;;
43994;SDS011;51687;52.160;5.298;2022-08-19T08:07:24;62.47;;;40.15;;
43994;SDS011;51687;52.160;5.298;2022-08-19T08:10:11;53.50;;;38.92;;
43994;SDS011;51687;52.160;5.298;2022-08-19T08:12:46;49.60;;;38.83;;
43994;SDS011;51687;52.160;5.298;2022-08-19T08:15:34;46.70;;;33.47;;
43994;SDS011;51687;52.160;5.298;2022-08-19T08:18:08;53.85;;;35.97;;
43994;SDS011;51687;52.160;5.298;2022-08-19T08:20:35;46.28;;;35.05;;
43994;SDS011;51687;52.160;5.298;2022-08-19T08:23:02;58.88;;;38.83;;
43994;SDS011;51687;52.160;5.298;2022-08-19T08:25:48;46.78;;;34.58;;
43994;SDS011;51687;52.160;5.298;2022-08-19T08:28:15;55.63;;;39.60;;
43994;SDS011;51687;52.160;5.298;2022-08-19T08:33:13;52.97;;;37.72;;
43994;SDS011;51687;52.160;5.298;2022-08-19T08:35:41;49.92;;;36.78;;
43994;SDS011;51687;52.160;5.298;2022-08-19T08:38:08;51.20;;;36.85;;
43994;SDS011;51687;52.160;5.298;2022-08-19T08:46:05;40.65;;;34.08;;
43994;SDS011;51687;52.160;5.298;2022-08-19T08:49:06;41.90;;;34.85;;
43994;SDS011;51687;52.160;5.298;2022-08-19T08:52:04;37.60;;;30.98;;
43994;SDS011;51687;52.160;5.298;2022-08-19T08:54:37;40.50;;;33.20;;
43994;SDS011;51687;52.160;5.298;2022-08-19T08:57:23;41.25;;;32.92;;
43994;SDS011;51687;52.160;5.298;2022-08-19T09:00:05;43.83;;;34.08;;
43994;SDS011;51687;52.160;5.298;2022-08-19T09:02:41;38.67;;;30.20;;
43994;SDS011;51687;52.160;5.298;2022-08-19T09:05:09;40.75;;;33.40;;
43994;SDS011;51687;52.160;5.298;2022-08-19T09:08:02;37.78;;;32.28;;
43994;SDS011;51687;52.160;5.298;2022-08-19T09:10:39;48.25;;;34.90;;
43994;SDS011;51687;52.160;5.298;2022-08-19T09:13:27;42.50;;;35.22;;
43994;SDS011;51687;52.160;5.298;2022-08-19T09:16:19;37.30;;;33.22;;
43994;SDS011;51687;52.160;5.298;2022-08-19T09:18:55;36.13;;;32.40;;
43994;SDS011;51687;52.160;5.298;2022-08-19T09:21:27;37.67;;;33.97;;
43994;SDS011;51687;52.160;5.298;2022-08-19T09:23:58;38.15;;;34.25;;
43994;SDS011;51687;52.160;5.298;2022-08-19T09:26:25;39.45;;;34.55;;
43994;SDS011;51687;52.160;5.298;2022-08-19T09:29:12;39.07;;;31.17;;
43994;SDS011;51687;52.160;5.298;2022-08-19T09:31:39;34.15;;;30.52;;
43994;SDS011;51687;52.160;5.298;2022-08-19T09:34:06;30.90;;;27.95;;
43994;SDS011;51687;52.160;5.298;2022-08-19T09:36:46;30.88;;;27.95;;
43994;SDS011;51687;52.160;5.298;2022-08-19T09:39:20;29.27;;;26.40;;
43994;SDS011;51687;52.160;5.298;2022-08-19T09:41:47;30.63;;;26.48;;
43994;SDS011;51687;52.160;5.298;2022-08-19T09:44:16;29.65;;;26.90;;
43994;SDS011;51687;52.160;5.298;2022-08-19T09:46:44;28.92;;;25.83;;
43994;SDS011;51687;52.160;5.298;2022-08-19T09:49:13;28.45;;;25.52;;
43994;SDS011;51687;52.160;5.298;2022-08-19T09:51:43;28.92;;;21.92;;
43994;SDS011;51687;52.160;5.298;2022-08-19T09:54:16;21.55;;;19.27;;
43994;SDS011;51687;52.160;5.298;2022-08-19T09:56:49;27.02;;;21.83;;
43994;SDS011;51687;52.160;5.298;2022-08-19T09:59:18;21.92;;;19.90;;
43994;SDS011;51687;52.160;5.298;2022-08-19T10:01:45;22.30;;;20.10;;
43994;SDS011;51687;52.160;5.298;2022-08-19T10:04:13;25.43;;;23.10;;
43994;SDS011;51687;52.160;5.298;2022-08-19T10:06:48;23.50;;;21.38;;
43994;SDS011;51687;52.160;5.298;2022-08-19T10:09:19;25.75;;;23.50;;
43994;SDS011;51687;52.160;5.298;2022-08-19T10:12:01;32.60;;;24.27;;
43994;SDS011;51687;52.160;5.298;2022-08-19T10:14:31;25.30;;;22.92;;
43994;SDS011;51687;52.160;5.298;2022-08-19T10:17:01;27.98;;;24.42;;
43994;SDS011;51687;52.160;5.298;2022-08-19T10:19:45;25.73;;;23.25;;
43994;SDS011;51687;52.160;5.298;2022-08-19T10:22:23;24.15;;;21.92;;
43994;SDS011;51687;52.160;5.298;2022-08-19T10:24:51;47.72;;;26.08;;
43994;SDS011;51687;52.160;5.298;2022-08-19T10:27:19;27.17;;;24.70;;
43994;SDS011;51687;52.160;5.298;2022-08-19T10:29:45;25.77;;;23.20;;
43994;SDS011;51687;52.160;5.298;2022-08-19T10:32:13;27.75;;;24.55;;
43994;SDS011;51687;52.160;5.298;2022-08-19T10:34:41;26.45;;;24.10;;
43994;SDS011;51687;52.160;5.298;2022-08-19T10:37:14;25.13;;;22.67;;
43994;SDS011;51687;52.160;5.298;2022-08-19T10:39:54;30.67;;;23.92;;
43994;SDS011;51687;52.160;5.298;2022-08-19T10:42:21;25.10;;;22.85;;
43994;SDS011;51687;52.160;5.298;2022-08-19T10:44:48;26.33;;;23.88;;
43994;SDS011;51687;52.160;5.298;2022-08-19T10:47:17;23.25;;;21.35;;
43994;SDS011;51687;52.160;5.298;2022-08-19T10:49:56;26.90;;;24.08;;
43994;SDS011;51687;52.160;5.298;2022-08-19T10:52:42;33.38;;;27.02;;
43994;SDS011;51687;52.160;5.298;2022-08-19T10:55:16;29.60;;;22.73;;
43994;SDS011;51687;52.160;5.298;2022-08-19T10:58:04;29.13;;;26.48;;
43994;SDS011;51687;52.160;5.298;2022-08-19T11:00:39;27.95;;;25.23;;
43994;SDS011;51687;52.160;5.298;2022-08-19T11:03:06;27.67;;;25.30;;
43994;SDS011;51687;52.160;5.298;2022-08-19T11:05:34;30.35;;;27.42;;
43994;SDS011;51687;52.160;5.298;2022-08-19T11:08:05;25.92;;;22.70;;
43994;SDS011;51687;52.160;5.298;2022-08-19T11:10:48;28.60;;;24.20;;
43994;SDS011;51687;52.160;5.298;2022-08-19T11:13:15;26.70;;;24.05;;
43994;SDS011;51687;52.160;5.298;2022-08-19T11:15:42;23.63;;;21.50;;
43994;SDS011;51687;52.160;5.298;2022-08-19T11:18:10;26.87;;;23.93;;
43994;SDS011;51687;52.160;5.298;2022-08-19T11:20:38;27.02;;;24.80;;
43994;SDS011;51687;52.160;5.298;2022-08-19T11:23:05;27.02;;;24.30;;
43994;SDS011;51687;52.160;5.298;2022-08-19T11:25:32;26.15;;;23.42;;
43994;SDS011;51687;52.160;5.298;2022-08-19T11:28:00;30.45;;;27.23;;
43994;SDS011;51687;52.160;5.298;2022-08-19T11:30:27;75.93;;;28.98;;
43994;SDS011;51687;52.160;5.298;2022-08-19T11:32:54;27.65;;;23.23;;
43994;SDS011;51687;52.160;5.298;2022-08-19T11:35:20;30.27;;;25.80;;
43994;SDS011;51687;52.160;5.298;2022-08-19T11:37:49;28.25;;;25.33;;
43994;SDS011;51687;52.160;5.298;2022-08-19T11:40:16;31.45;;;26.98;;
43994;SDS011;51687;52.160;5.298;2022-08-19T11:42:44;43.58;;;26.42;;
43994;SDS011;51687;52.160;5.298;2022-08-19T11:45:24;35.03;;;28.77;;
43994;SDS011;51687;52.160;5.298;2022-08-19T11:47:52;27.30;;;24.88;;
43994;SDS011;51687;52.160;5.298;2022-08-19T11:50:24;31.83;;;26.33;;
43994;SDS011;51687;52.160;5.298;2022-08-19T11:52:55;28.27;;;23.98;;
43994;SDS011;51687;52.160;5.298;2022-08-19T11:55:22;144.68;;;35.83;;
43994;SDS011;51687;52.160;5.298;2022-08-19T11:57:49;35.93;;;22.57;;
43994;SDS011;51687;52.160;5.298;2022-08-19T12:00:16;35.03;;;24.42;;
43994;SDS011;51687;52.160;5.298;2022-08-19T12:02:43;25.33;;;20.48;;
43994;SDS011;51687;52.160;5.298;2022-08-19T12:05:10;26.67;;;23.13;;
43994;SDS011;51687;52.160;5.298;2022-08-19T12:07:38;24.38;;;22.08;;
43994;SDS011;51687;52.160;5.298;2022-08-19T12:10:07;24.98;;;22.40;;
43994;SDS011;51687;52.160;5.298;2022-08-19T12:12:35;30.35;;;27.10;;
43994;SDS011;51687;52.160;5.298;2022-08-19T12:15:06;41.05;;;31.20;;
43994;SDS011;51687;52.160;5.298;2022-08-19T12:17:33;34.00;;;30.37;;
43994;SDS011;51687;52.160;5.298;2022-08-19T12:20:00;30.95;;;27.58;;
43994;SDS011;51687;52.160;5.298;2022-08-19T12:22:27;37.92;;;25.63;;
43994;SDS011;51687;52.160;5.298;2022-08-19T12:24:54;27.58;;;21.27;;
43994;SDS011;51687;52.160;5.298;2022-08-19T12:27:21;26.45;;;23.70;;
43994;SDS011;51687;52.160;5.298;2022-08-19T12:30:06;27.20;;;24.48;;
43994;SDS011;51687;52.160;5.298;2022-08-19T12:32:35;23.77;;;21.88;;
43994;SDS011;51687;52.160;5.298;2022-08-19T12:35:03;24.98;;;22.95;;
43994;SDS011;51687;52.160;5.298;2022-08-19T12:37:30;26.97;;;24.50;;
43994;SDS011;51687;52.160;5.298;2022-08-19T12:39:58;28.10;;;25.77;;
43994;SDS011;51687;52.160;5.298;2022-08-19T12:42:25;30.92;;;28.02;;
43994;SDS011;51687;52.160;5.298;2022-08-19T12:44:52;28.17;;;25.60;;
43994;SDS011;51687;52.160;5.298;2022-08-19T12:47:19;25.02;;;23.23;;
43994;SDS011;51687;52.160;5.298;2022-08-19T12:49:48;27.33;;;25.10;;
43994;SDS011;51687;52.160;5.298;2022-08-19T12:52:21;29.35;;;26.73;;
43994;SDS011;51687;52.160;5.298;2022-08-19T12:54:50;28.73;;;26.13;;
43994;SDS011;51687;52.160;5.298;2022-08-19T12:57:23;28.98;;;26.45;;
43994;SDS011;51687;52.160;5.298;2022-08-19T13:02:35;30.85;;;27.88;;
43994;SDS011;51687;52.160;5.298;2022-08-19T13:05:04;30.50;;;27.90;;
43994;SDS011;51687;52.160;5.298;2022-08-19T13:07:34;29.95;;;27.33;;
43994;SDS011;51687;52.160;5.298;2022-08-19T13:10:02;29.08;;;26.85;;
43994;SDS011;51687;52.160;5.298;2022-08-19T13:12:32;29.20;;;27.13;;
43994;SDS011;51687;52.160;5.298;2022-08-19T13:14:59;30.88;;;28.10;;
43994;SDS011;51687;52.160;5.298;2022-08-19T13:17:28;31.42;;;28.60;;
43994;SDS011;51687;52.160;5.298;2022-08-19T13:20:02;31.65;;;28.60;;
43994;SDS011;51687;52.160;5.298;2022-08-19T13:22:32;30.20;;;27.55;;
43994;SDS011;51687;52.160;5.298;2022-08-19T13:24:59;29.83;;;27.52;;
43994;SDS011;51687;52.160;5.298;2022-08-19T13:27:26;29.52;;;26.73;;
43994;SDS011;51687;52.160;5.298;2022-08-19T13:29:52;24.40;;;22.60;;
43994;SDS011;51687;52.160;5.298;2022-08-19T13:32:38;26.20;;;23.88;;
43994;SDS011;51687;52.160;5.298;2022-08-19T13:35:23;26.08;;;23.65;;
43994;SDS011;51687;52.160;5.298;2022-08-19T13:37:50;21.45;;;19.95;;
43994;SDS011;51687;52.160;5.298;2022-08-19T13:40:19;21.33;;;19.53;;
43994;SDS011;51687;52.160;5.298;2022-08-19T13:42:50;22.45;;;20.48;;
43994;SDS011;51687;52.160;5.298;2022-08-19T13:45:20;20.60;;;18.45;;
43994;SDS011;51687;52.160;5.298;2022-08-19T13:47:51;18.02;;;16.67;;
43994;SDS011;51687;52.160;5.298;2022-08-19T13:50:28;16.80;;;15.30;;
43994;SDS011;51687;52.160;5.298;2022-08-19T13:52:57;19.20;;;17.33;;
43994;SDS011;51687;52.160;5.298;2022-08-19T13:55:24;17.40;;;15.57;;
43994;SDS011;51687;52.160;5.298;2022-08-19T13:57:52;16.52;;;15.02;;
43994;SDS011;51687;52.160;5.298;2022-08-19T14:00:24;16.05;;;14.82;;
43994;SDS011;51687;52.160;5.298;2022-08-19T14:02:53;16.88;;;15.35;;
43994;SDS011;51687;52.160;5.298;2022-08-19T14:05:22;17.35;;;15.80;;
43994;SDS011;51687;52.160;5.298;2022-08-19T14:07:49;16.85;;;15.27;;
43994;SDS011;51687;52.160;5.298;2022-08-19T14:10:16;18.45;;;17.00;;
43994;SDS011;51687;52.160;5.298;2022-08-19T14:15:11;16.40;;;14.75;;
43994;SDS011;51687;52.160;5.298;2022-08-19T14:17:39;16.30;;;14.82;;
43994;SDS011;51687;52.160;5.298;2022-08-19T14:20:08;15.75;;;14.48;;
43994;SDS011;51687;52.160;5.298;2022-08-19T14:22:43;13.90;;;12.77;;
43994;SDS011;51687;52.160;5.298;2022-08-19T14:25:16;15.00;;;13.60;;
43994;SDS011;51687;52.160;5.298;2022-08-19T14:27:45;14.70;;;13.38;;
43994;SDS011;51687;52.160;5.298;2022-08-19T14:30:15;15.65;;;14.18;;
43994;SDS011;51687;52.160;5.298;2022-08-19T14:32:48;15.57;;;11.85;;
43994;SDS011;51687;52.160;5.298;2022-08-19T14:35:15;12.32;;;11.18;;
43994;SDS011;51687;52.160;5.298;2022-08-19T14:37:43;13.23;;;11.00;;
43994;SDS011;51687;52.160;5.298;2022-08-19T14:40:15;11.30;;;10.30;;
43994;SDS011;51687;52.160;5.298;2022-08-19T14:42:44;10.70;;;9.68;;
43994;SDS011;51687;52.160;5.298;2022-08-19T14:45:11;9.32;;;8.40;;
43994;SDS011;51687;52.160;5.298;2022-08-19T14:47:38;9.90;;;9.07;;
43994;SDS011;51687;52.160;5.298;2022-08-19T14:50:12;9.23;;;8.43;;
43994;SDS011;51687;52.160;5.298;2022-08-19T14:52:44;9.98;;;9.00;;
43994;SDS011;51687;52.160;5.298;2022-08-19T14:55:14;9.27;;;8.57;;
43994;SDS011;51687;52.160;5.298;2022-08-19T14:57:44;9.60;;;8.70;;
43994;SDS011;51687;52.160;5.298;2022-08-19T15:00:14;9.48;;;8.77;;
43994;SDS011;51687;52.160;5.298;2022-08-19T15:02:41;9.43;;;8.73;;
43994;SDS011;51687;52.160;5.298;2022-08-19T15:05:10;8.98;;;8.32;;
43994;SDS011;51687;52.160;5.298;2022-08-19T15:07:37;10.52;;;9.60;;
43994;SDS011;51687;52.160;5.298;2022-08-19T15:10:05;9.13;;;8.45;;
43994;SDS011;51687;52.160;5.298;2022-08-19T15:12:35;10.05;;;9.18;;
43994;SDS011;51687;52.160;5.298;2022-08-19T15:15:04;9.98;;;9.05;;
43994;SDS011;51687;52.160;5.298;2022-08-19T15:17:39;7.65;;;6.95;;
43994;SDS011;51687;52.160;5.298;2022-08-19T15:20:20;8.02;;;7.30;;
43994;SDS011;51687;52.160;5.298;2022-08-19T15:22:50;6.57;;;5.93;;